sensor_id;sensor_type;location;lat;lon;timestamp;pressure;altitude;pressure_sealevel;temperature;humidity
31357;BME280;60001;48.404;11.738;2023-05-22T00:00:04;95898.59;;;19.38;55.84
31357;BME280;60001;48.404;11.738;2023-05-22T00:01:37;95887.56;;;19.39;55.50
31357;BME280;60001;48.404;11.738;2023-05-22T00:03:13;95896.09;;;19.41;55.35
31357;BME280;60001;48.404;11.738;2023-05-22T00:04:46;95893.25;;;19.29;55.84
31357;BME280;60001;48.404;11.738;2023-05-22T00:06:18;95902.53;;;19.32;55.50
31357;BME280;60001;48.404;11.738;2023-05-22T00:07:49;95899.72;;;19.28;56.38
31357;BME280;60001;48.404;11.738;2023-05-22T00:09:21;95894.97;;;19.25;56.07
31357;BME280;60001;48.404;11.738;2023-05-22T00:10:53;95886.66;;;19.18;55.81
31357;BME280;60001;48.404;11.738;2023-05-22T00:12:25;95895.47;;;19.27;55.47
31357;BME280;60001;48.404;11.738;2023-05-22T00:13:57;95885.25;;;19.21;56.00
31357;BME280;60001;48.404;11.738;2023-05-22T00:15:29;95894.03;;;19.30;55.52
31357;BME280;60001;48.404;11.738;2023-05-22T00:17:00;95883.50;;;19.25;55.66
31357;BME280;60001;48.404;11.738;2023-05-22T00:18:34;95885.56;;;19.10;56.23
31357;BME280;60001;48.404;11.738;2023-05-22T00:20:06;95881.59;;;19.25;55.99
31357;BME280;60001;48.404;11.738;2023-05-22T00:21:40;95881.47;;;19.22;55.71
31357;BME280;60001;48.404;11.738;2023-05-22T00:23:12;95883.34;;;19.30;55.79
31357;BME280;60001;48.404;11.738;2023-05-22T00:24:43;95881.59;;;19.25;55.41
31357;BME280;60001;48.404;11.738;2023-05-22T00:26:15;95888.03;;;19.33;55.95
31357;BME280;60001;48.404;11.738;2023-05-22T00:27:47;95877.84;;;19.26;55.29
31357;BME280;60001;48.404;11.738;2023-05-22T00:29:18;95877.22;;;19.21;56.17
31357;BME280;60001;48.404;11.738;2023-05-22T00:30:49;95882.25;;;19.22;55.35
31357;BME280;60001;48.404;11.738;2023-05-22T00:32:20;95888.84;;;19.25;56.19
31357;BME280;60001;48.404;11.738;2023-05-22T00:33:53;95885.25;;;19.03;56.81
31357;BME280;60001;48.404;11.738;2023-05-22T00:35:24;95877.38;;;19.07;56.04
31357;BME280;60001;48.404;11.738;2023-05-22T00:36:56;95883.38;;;19.12;55.95
31357;BME280;60001;48.404;11.738;2023-05-22T00:38:29;95878.81;;;19.13;56.09
31357;BME280;60001;48.404;11.738;2023-05-22T00:40:02;95880.34;;;19.05;56.80
31357;BME280;60001;48.404;11.738;2023-05-22T00:41:35;95880.06;;;19.07;56.56
31357;BME280;60001;48.404;11.738;2023-05-22T00:43:07;95880.06;;;19.07;56.29
31357;BME280;60001;48.404;11.738;2023-05-22T00:44:38;95878.50;;;19.06;56.12
31357;BME280;60001;48.404;11.738;2023-05-22T00:46:11;95870.13;;;18.90;56.59
31357;BME280;60001;48.404;11.738;2023-05-22T00:47:44;95875.81;;;18.88;56.98
31357;BME280;60001;48.404;11.738;2023-05-22T00:49:18;95874.56;;;18.86;57.69
31357;BME280;60001;48.404;11.738;2023-05-22T00:50:50;95875.19;;;18.92;56.76
31357;BME280;60001;48.404;11.738;2023-05-22T00:52:25;95876.28;;;18.82;57.47
31357;BME280;60001;48.404;11.738;2023-05-22T00:53:57;95871.88;;;18.86;57.35
31357;BME280;60001;48.404;11.738;2023-05-22T00:55:29;95875.00;;;18.88;57.22
31357;BME280;60001;48.404;11.738;2023-05-22T00:57:00;95877.84;;;18.83;57.65
31357;BME280;60001;48.404;11.738;2023-05-22T00:58:33;95872.97;;;18.85;57.62
31357;BME280;60001;48.404;11.738;2023-05-22T01:00:06;95878.00;;;18.78;57.30
31357;BME280;60001;48.404;11.738;2023-05-22T01:01:40;95881.94;;;18.89;57.75
31357;BME280;60001;48.404;11.738;2023-05-22T01:03:13;95871.38;;;18.75;57.16
31357;BME280;60001;48.404;11.738;2023-05-22T01:04:46;95872.81;;;18.81;57.58
31357;BME280;60001;48.404;11.738;2023-05-22T01:06:18;95880.69;;;18.86;57.04
31357;BME280;60001;48.404;11.738;2023-05-22T01:07:51;95877.19;;;18.77;57.38
31357;BME280;60001;48.404;11.738;2023-05-22T01:09:22;95881.31;;;18.75;58.18
31357;BME280;60001;48.404;11.738;2023-05-22T01:11:03;95887.13;;;18.68;57.90
31357;BME280;60001;48.404;11.738;2023-05-22T01:12:47;95866.44;;;18.43;59.19
31357;BME280;60001;48.404;11.738;2023-05-22T01:14:27;95888.97;;;18.59;59.60
31357;BME280;60001;48.404;11.738;2023-05-22T01:16:09;95891.78;;;18.45;59.60
31357;BME280;60001;48.404;11.738;2023-05-22T01:17:54;95877.78;;;18.48;58.71
31357;BME280;60001;48.404;11.738;2023-05-22T01:19:55;95891.44;;;18.47;58.61
31357;BME280;60001;48.404;11.738;2023-05-22T01:21:41;95884.53;;;18.46;58.74
31357;BME280;60001;48.404;11.738;2023-05-22T01:28:10;95902.25;;;18.24;59.86
31357;BME280;60001;48.404;11.738;2023-05-22T01:30:02;95890.47;;;18.34;59.37
31357;BME280;60001;48.404;11.738;2023-05-22T01:31:44;95891.13;;;18.40;59.26
31357;BME280;60001;48.404;11.738;2023-05-22T01:33:21;95891.75;;;18.37;59.64
31357;BME280;60001;48.404;11.738;2023-05-22T01:34:58;95889.22;;;18.31;59.87
31357;BME280;60001;48.404;11.738;2023-05-22T01:36:34;95895.66;;;18.30;59.67
31357;BME280;60001;48.404;11.738;2023-05-22T01:38:08;95899.09;;;18.22;60.47
31357;BME280;60001;48.404;11.738;2023-05-22T01:39:43;95894.09;;;18.29;59.33
31357;BME280;60001;48.404;11.738;2023-05-22T01:41:16;95891.09;;;18.31;59.32
31357;BME280;60001;48.404;11.738;2023-05-22T01:42:46;95898.34;;;18.30;59.53
31357;BME280;60001;48.404;11.738;2023-05-22T01:44:18;95896.31;;;18.36;59.21
31357;BME280;60001;48.404;11.738;2023-05-22T01:45:50;95903.53;;;18.35;59.13
31357;BME280;60001;48.404;11.738;2023-05-22T01:47:23;95890.78;;;18.32;59.70
31357;BME280;60001;48.404;11.738;2023-05-22T01:48:54;95890.66;;;18.29;59.46
31357;BME280;60001;48.404;11.738;2023-05-22T01:50:26;95898.78;;;18.24;59.80
31357;BME280;60001;48.404;11.738;2023-05-22T01:52:04;95897.22;;;18.23;59.96
31357;BME280;60001;48.404;11.738;2023-05-22T01:53:50;95899.72;;;18.19;59.91
31357;BME280;60001;48.404;11.738;2023-05-22T01:55:33;95904.13;;;18.15;60.46
31357;BME280;60001;48.404;11.738;2023-05-22T01:57:16;95906.50;;;18.25;59.22
31357;BME280;60001;48.404;11.738;2023-05-22T01:58:57;95908.25;;;18.30;59.42
31357;BME280;60001;48.404;11.738;2023-05-22T02:00:31;95902.69;;;18.18;60.22
31357;BME280;60001;48.404;11.738;2023-05-22T02:02:05;95899.41;;;18.21;60.20
31357;BME280;60001;48.404;11.738;2023-05-22T02:03:41;95907.28;;;18.26;59.42
31357;BME280;60001;48.404;11.738;2023-05-22T02:05:15;95906.59;;;18.12;59.91
31357;BME280;60001;48.404;11.738;2023-05-22T02:06:51;95904.72;;;18.12;60.74
31357;BME280;60001;48.404;11.738;2023-05-22T02:08:25;95905.34;;;18.09;61.20
31357;BME280;60001;48.404;11.738;2023-05-22T02:09:59;95903.78;;;18.08;60.94
31357;BME280;60001;48.404;11.738;2023-05-22T02:11:35;95902.97;;;18.07;60.68
31357;BME280;60001;48.404;11.738;2023-05-22T02:13:08;95901.09;;;18.08;60.54
31357;BME280;60001;48.404;11.738;2023-05-22T02:14:41;95909.41;;;18.06;60.83
31357;BME280;60001;48.404;11.738;2023-05-22T02:16:13;95882.34;;;17.99;60.45
31357;BME280;60001;48.404;11.738;2023-05-22T02:17:46;95907.53;;;18.07;60.78
31357;BME280;60001;48.404;11.738;2023-05-22T02:19:20;95905.94;;;18.06;60.54
31357;BME280;60001;48.404;11.738;2023-05-22T02:20:52;95909.25;;;18.03;60.59
31357;BME280;60001;48.404;11.738;2023-05-22T02:22:22;95903.16;;;18.11;60.07
31357;BME280;60001;48.404;11.738;2023-05-22T02:23:54;95903.63;;;18.13;59.68
31357;BME280;60001;48.404;11.738;2023-05-22T02:25:26;95900.00;;;18.09;60.38
31357;BME280;60001;48.404;11.738;2023-05-22T02:26:58;95910.97;;;18.07;60.56
31357;BME280;60001;48.404;11.738;2023-05-22T02:28:31;95906.72;;;17.98;60.69
31357;BME280;60001;48.404;11.738;2023-05-22T02:30:04;95904.66;;;17.95;61.30
31357;BME280;60001;48.404;11.738;2023-05-22T02:31:35;95907.47;;;17.90;60.97
31357;BME280;60001;48.404;11.738;2023-05-22T02:33:06;95906.34;;;17.82;61.79
31357;BME280;60001;48.404;11.738;2023-05-22T02:34:42;95908.97;;;17.73;62.27
31357;BME280;60001;48.404;11.738;2023-05-22T02:36:13;95903.63;;;17.73;61.76
31357;BME280;60001;48.404;11.738;2023-05-22T02:37:45;95908.75;;;17.70;62.38
31357;BME280;60001;48.404;11.738;2023-05-22T02:39:17;95908.47;;;17.71;62.46
31357;BME280;60001;48.404;11.738;2023-05-22T02:40:49;95894.31;;;17.71;62.63
31357;BME280;60001;48.404;11.738;2023-05-22T02:42:21;95912.47;;;17.83;61.85
31357;BME280;60001;48.404;11.738;2023-05-22T02:43:52;95908.03;;;17.78;62.07
31357;BME280;60001;48.404;11.738;2023-05-22T02:45:24;95909.13;;;17.77;62.09
31357;BME280;60001;48.404;11.738;2023-05-22T02:46:55;95906.84;;;17.70;61.78
31357;BME280;60001;48.404;11.738;2023-05-22T02:48:27;95903.91;;;17.72;62.14
31357;BME280;60001;48.404;11.738;2023-05-22T02:50:00;95903.00;;;17.76;62.38
31357;BME280;60001;48.404;11.738;2023-05-22T02:51:31;95899.94;;;17.69;61.62
31357;BME280;60001;48.404;11.738;2023-05-22T02:53:03;95901.34;;;17.67;61.82
31357;BME280;60001;48.404;11.738;2023-05-22T02:54:34;95901.47;;;17.62;62.69
31357;BME280;60001;48.404;11.738;2023-05-22T02:56:06;95909.38;;;17.67;62.37
31357;BME280;60001;48.404;11.738;2023-05-22T02:57:39;95909.44;;;17.53;62.41
31357;BME280;60001;48.404;11.738;2023-05-22T02:59:11;95908.34;;;17.54;62.75
31357;BME280;60001;48.404;11.738;2023-05-22T03:00:42;95907.41;;;17.59;62.90
31357;BME280;60001;48.404;11.738;2023-05-22T03:02:14;95900.34;;;17.54;63.11
31357;BME280;60001;48.404;11.738;2023-05-22T03:03:47;95904.88;;;17.53;62.99
31357;BME280;60001;48.404;11.738;2023-05-22T03:05:20;95906.63;;;17.58;62.25
31357;BME280;60001;48.404;11.738;2023-05-22T03:06:51;95905.69;;;17.54;62.30
31357;BME280;60001;48.404;11.738;2023-05-22T03:08:24;95907.25;;;17.55;62.34
31357;BME280;60001;48.404;11.738;2023-05-22T03:09:57;95901.91;;;17.55;62.42
31357;BME280;60001;48.404;11.738;2023-05-22T03:11:29;95901.56;;;17.48;62.83
31357;BME280;60001;48.404;11.738;2023-05-22T03:13:01;95901.19;;;17.41;63.55
31357;BME280;60001;48.404;11.738;2023-05-22T03:14:32;95895.06;;;17.40;63.43
31357;BME280;60001;48.404;11.738;2023-05-22T03:16:04;95900.72;;;17.39;63.57
31357;BME280;60001;48.404;11.738;2023-05-22T03:17:36;95888.72;;;17.27;63.04
31357;BME280;60001;48.404;11.738;2023-05-22T03:19:08;95910.72;;;17.33;63.92
31357;BME280;60001;48.404;11.738;2023-05-22T03:20:41;95907.06;;;17.29;64.21
31357;BME280;60001;48.404;11.738;2023-05-22T03:22:13;95909.94;;;17.33;64.13
31357;BME280;60001;48.404;11.738;2023-05-22T03:23:46;95913.50;;;17.28;63.53
31357;BME280;60001;48.404;11.738;2023-05-22T03:25:18;95918.78;;;17.19;63.60
31357;BME280;60001;48.404;11.738;2023-05-22T03:26:51;95915.88;;;17.07;64.88
31357;BME280;60001;48.404;11.738;2023-05-22T03:28:22;95909.81;;;17.15;64.33
31357;BME280;60001;48.404;11.738;2023-05-22T03:29:53;95916.47;;;17.26;64.38
31357;BME280;60001;48.404;11.738;2023-05-22T03:31:28;95912.53;;;17.24;64.56
31357;BME280;60001;48.404;11.738;2023-05-22T03:33:01;95925.69;;;17.20;64.03
31357;BME280;60001;48.404;11.738;2023-05-22T03:34:33;95921.94;;;17.21;63.95
31357;BME280;60001;48.404;11.738;2023-05-22T03:36:07;95915.44;;;17.14;64.33
31357;BME280;60001;48.404;11.738;2023-05-22T03:37:39;95922.50;;;16.96;65.27
31357;BME280;60001;48.404;11.738;2023-05-22T03:39:11;95924.06;;;17.11;65.12
31357;BME280;60001;48.404;11.738;2023-05-22T03:40:42;95920.03;;;16.99;65.07
31357;BME280;60001;48.404;11.738;2023-05-22T03:42:14;95913.44;;;16.97;65.51
31357;BME280;60001;48.404;11.738;2023-05-22T03:43:46;95924.81;;;16.89;65.81
31357;BME280;60001;48.404;11.738;2023-05-22T03:45:18;95925.84;;;17.02;65.30
31357;BME280;60001;48.404;11.738;2023-05-22T03:46:50;95923.97;;;17.02;65.48
31357;BME280;60001;48.404;11.738;2023-05-22T03:48:21;95928.53;;;17.02;65.12
31357;BME280;60001;48.404;11.738;2023-05-22T03:49:52;95919.34;;;16.94;65.84
31357;BME280;60001;48.404;11.738;2023-05-22T03:51:24;95930.75;;;16.86;66.01
31357;BME280;60001;48.404;11.738;2023-05-22T03:52:56;95924.81;;;16.89;66.05
31357;BME280;60001;48.404;11.738;2023-05-22T03:54:27;95930.25;;;16.84;66.17
31357;BME280;60001;48.404;11.738;2023-05-22T03:55:59;95926.44;;;16.76;66.50
31357;BME280;60001;48.404;11.738;2023-05-22T03:57:29;95925.75;;;16.70;65.93
31357;BME280;60001;48.404;11.738;2023-05-22T03:59:01;95920.78;;;16.78;66.20
31357;BME280;60001;48.404;11.738;2023-05-22T04:00:32;95919.22;;;16.77;66.28
31357;BME280;60001;48.404;11.738;2023-05-22T04:02:04;95920.97;;;16.81;66.24
31357;BME280;60001;48.404;11.738;2023-05-22T04:03:36;95925.72;;;16.84;66.33
31357;BME280;60001;48.404;11.738;2023-05-22T04:05:08;95915.84;;;16.85;65.69
31357;BME280;60001;48.404;11.738;2023-05-22T04:06:40;95920.78;;;16.78;66.43
31357;BME280;60001;48.404;11.738;2023-05-22T04:08:13;95915.47;;;16.78;66.13
31357;BME280;60001;48.404;11.738;2023-05-22T04:09:45;95920.97;;;16.67;66.98
31357;BME280;60001;48.404;11.738;2023-05-22T04:11:16;95921.69;;;16.73;67.11
31357;BME280;60001;48.404;11.738;2023-05-22T04:12:49;95921.59;;;16.78;67.10
31357;BME280;60001;48.404;11.738;2023-05-22T04:14:20;95919.03;;;16.73;67.09
31357;BME280;60001;48.404;11.738;2023-05-22T04:15:51;95919.03;;;16.73;67.50
31357;BME280;60001;48.404;11.738;2023-05-22T04:17:23;95922.94;;;16.76;67.34
31357;BME280;60001;48.404;11.738;2023-05-22T04:18:54;95921.09;;;16.76;67.27
31357;BME280;60001;48.404;11.738;2023-05-22T04:20:27;95928.78;;;16.78;66.85
31357;BME280;60001;48.404;11.738;2023-05-22T04:22:00;95918.00;;;16.83;66.42
31357;BME280;60001;48.404;11.738;2023-05-22T04:23:32;95925.41;;;16.86;66.75
31357;BME280;60001;48.404;11.738;2023-05-22T04:25:04;95930.53;;;16.82;66.37
31357;BME280;60001;48.404;11.738;2023-05-22T04:26:36;95925.31;;;16.91;66.71
31357;BME280;60001;48.404;11.738;2023-05-22T04:28:08;95934.50;;;16.85;66.18
31357;BME280;60001;48.404;11.738;2023-05-22T04:29:39;95937.97;;;16.85;66.53
31357;BME280;60001;48.404;11.738;2023-05-22T04:31:17;95928.66;;;16.83;67.19
31357;BME280;60001;48.404;11.738;2023-05-22T04:32:52;95934.09;;;16.91;66.58
31357;BME280;60001;48.404;11.738;2023-05-22T04:34:24;95935.38;;;16.94;66.41
31357;BME280;60001;48.404;11.738;2023-05-22T04:35:55;95943.06;;;16.95;66.27
31357;BME280;60001;48.404;11.738;2023-05-22T04:37:28;95944.91;;;17.09;65.95
31357;BME280;60001;48.404;11.738;2023-05-22T04:39:00;95934.53;;;17.07;65.85
31357;BME280;60001;48.404;11.738;2023-05-22T04:40:32;95942.75;;;17.11;65.95
31357;BME280;60001;48.404;11.738;2023-05-22T04:42:04;95949.72;;;17.20;65.75
31357;BME280;60001;48.404;11.738;2023-05-22T04:43:35;95947.16;;;17.15;65.85
31357;BME280;60001;48.404;11.738;2023-05-22T04:45:08;95946.44;;;17.23;65.49
31357;BME280;60001;48.404;11.738;2023-05-22T04:46:40;95943.47;;;17.25;64.88
31357;BME280;60001;48.404;11.738;2023-05-22T04:48:12;95940.38;;;17.32;65.10
31357;BME280;60001;48.404;11.738;2023-05-22T04:49:45;95947.34;;;17.41;64.33
31357;BME280;60001;48.404;11.738;2023-05-22T04:51:15;95946.88;;;17.39;65.56
31357;BME280;60001;48.404;11.738;2023-05-22T04:52:48;95952.03;;;17.36;64.99
31357;BME280;60001;48.404;11.738;2023-05-22T04:54:20;95945.22;;;17.30;65.51
31357;BME280;60001;48.404;11.738;2023-05-22T04:55:52;95946.72;;;17.22;66.00
31357;BME280;60001;48.404;11.738;2023-05-22T04:57:24;95951.84;;;17.32;65.88
31357;BME280;60001;48.404;11.738;2023-05-22T04:58:56;95954.56;;;17.41;66.12
31357;BME280;60001;48.404;11.738;2023-05-22T05:00:29;95948.44;;;17.40;65.60
31357;BME280;60001;48.404;11.738;2023-05-22T05:02:01;95945.47;;;17.42;65.23
31357;BME280;60001;48.404;11.738;2023-05-22T05:03:33;95944.38;;;17.43;65.47
31357;BME280;60001;48.404;11.738;2023-05-22T05:05:05;95946.88;;;17.39;65.67
31357;BME280;60001;48.404;11.738;2023-05-22T05:06:37;95951.28;;;17.44;65.80
31357;BME280;60001;48.404;11.738;2023-05-22T05:08:10;95944.56;;;17.46;66.12
31357;BME280;60001;48.404;11.738;2023-05-22T05:09:42;95946.31;;;17.51;65.87
31357;BME280;60001;48.404;11.738;2023-05-22T05:11:13;95945.94;;;17.44;65.27
31357;BME280;60001;48.404;11.738;2023-05-22T05:12:44;95945.72;;;17.54;64.67
31357;BME280;60001;48.404;11.738;2023-05-22T05:14:16;95943.88;;;17.63;64.77
31357;BME280;60001;48.404;11.738;2023-05-22T05:15:47;95946.38;;;17.60;64.94
31357;BME280;60001;48.404;11.738;2023-05-22T05:17:19;95942.91;;;17.59;63.96
31357;BME280;60001;48.404;11.738;2023-05-22T05:18:51;95946.56;;;17.63;64.80
31357;BME280;60001;48.404;11.738;2023-05-22T05:20:24;95947.28;;;17.55;64.56
31357;BME280;60001;48.404;11.738;2023-05-22T05:21:56;95948.06;;;17.56;65.42
31357;BME280;60001;48.404;11.738;2023-05-22T05:23:29;95948.38;;;17.54;65.64
31357;BME280;60001;48.404;11.738;2023-05-22T05:25:01;95944.66;;;17.64;64.62
31357;BME280;60001;48.404;11.738;2023-05-22T05:26:34;95940.06;;;17.56;65.23
31357;BME280;60001;48.404;11.738;2023-05-22T05:28:07;95942.47;;;17.66;64.39
31357;BME280;60001;48.404;11.738;2023-05-22T05:29:41;95944.81;;;17.81;63.63
31357;BME280;60001;48.404;11.738;2023-05-22T05:31:15;95949.53;;;17.84;64.25
31357;BME280;60001;48.404;11.738;2023-05-22T05:32:48;95951.34;;;17.97;63.66
31357;BME280;60001;48.404;11.738;2023-05-22T05:34:20;95943.47;;;18.01;62.66
31357;BME280;60001;48.404;11.738;2023-05-22T05:35:52;95950.59;;;18.05;62.56
31357;BME280;60001;48.404;11.738;2023-05-22T05:37:24;95944.44;;;18.05;63.31
31357;BME280;60001;48.404;11.738;2023-05-22T05:38:57;95952.16;;;18.06;62.72
31357;BME280;60001;48.404;11.738;2023-05-22T05:40:29;95947.66;;;18.16;63.12
31357;BME280;60001;48.404;11.738;2023-05-22T05:42:00;95951.91;;;18.17;63.70
31357;BME280;60001;48.404;11.738;2023-05-22T05:43:32;95934.09;;;18.03;62.88
31357;BME280;60001;48.404;11.738;2023-05-22T05:45:04;95947.94;;;18.14;62.33
31357;BME280;60001;48.404;11.738;2023-05-22T05:46:36;95948.28;;;18.21;62.87
31357;BME280;60001;48.404;11.738;2023-05-22T05:48:08;95947.81;;;18.19;62.24
31357;BME280;60001;48.404;11.738;2023-05-22T05:49:41;95948.56;;;18.11;63.20
31357;BME280;60001;48.404;11.738;2023-05-22T05:51:12;95940.25;;;18.21;63.41
31357;BME280;60001;48.404;11.738;2023-05-22T05:52:45;95953.06;;;18.33;63.21
31357;BME280;60001;48.404;11.738;2023-05-22T05:54:18;95953.88;;;18.42;64.02
31357;BME280;60001;48.404;11.738;2023-05-22T05:55:51;95941.16;;;18.48;64.03
31357;BME280;60001;48.404;11.738;2023-05-22T05:57:22;95943.69;;;18.53;63.75
31357;BME280;60001;48.404;11.738;2023-05-22T05:58:54;95943.69;;;18.61;63.29
31357;BME280;60001;48.404;11.738;2023-05-22T06:00:26;95956.91;;;18.58;62.86
31357;BME280;60001;48.404;11.738;2023-05-22T06:01:58;95945.16;;;18.68;62.21
31357;BME280;60001;48.404;11.738;2023-05-22T06:03:29;95948.03;;;18.71;61.07
31357;BME280;60001;48.404;11.738;2023-05-22T06:05:02;95942.69;;;18.80;60.31
31357;BME280;60001;48.404;11.738;2023-05-22T06:06:34;95940.16;;;18.83;61.74
31357;BME280;60001;48.404;11.738;2023-05-22T06:08:06;95948.34;;;18.96;62.29
31357;BME280;60001;48.404;11.738;2023-05-22T06:09:40;95953.69;;;18.96;61.47
31357;BME280;60001;48.404;11.738;2023-05-22T06:11:12;95947.88;;;18.85;62.39
31357;BME280;60001;48.404;11.738;2023-05-22T06:12:43;95945.34;;;18.97;62.35
31357;BME280;60001;48.404;11.738;2023-05-22T06:14:15;95940.81;;;19.06;62.16
31357;BME280;60001;48.404;11.738;2023-05-22T06:15:47;95948.66;;;19.11;62.00
31357;BME280;60001;48.404;11.738;2023-05-22T06:17:19;95944.91;;;19.04;61.32
31357;BME280;60001;48.404;11.738;2023-05-22T06:18:51;95954.03;;;19.03;62.54
31357;BME280;60001;48.404;11.738;2023-05-22T06:20:22;95960.34;;;19.15;61.75
31357;BME280;60001;48.404;11.738;2023-05-22T06:21:54;95958.63;;;19.20;61.35
31357;BME280;60001;48.404;11.738;2023-05-22T06:23:26;95952.91;;;19.04;61.49
31357;BME280;60001;48.404;11.738;2023-05-22T06:24:59;95954.19;;;19.15;60.93
31357;BME280;60001;48.404;11.738;2023-05-22T06:26:31;95959.72;;;19.27;61.27
31357;BME280;60001;48.404;11.738;2023-05-22T06:28:03;95950.44;;;19.33;61.61
31357;BME280;60001;48.404;11.738;2023-05-22T06:29:35;95963.19;;;19.28;61.48
31357;BME280;60001;48.404;11.738;2023-05-22T06:31:07;95960.34;;;19.41;61.29
31357;BME280;60001;48.404;11.738;2023-05-22T06:32:40;95957.00;;;19.53;61.55
31357;BME280;60001;48.404;11.738;2023-05-22T06:34:11;95948.22;;;19.61;61.77
31357;BME280;60001;48.404;11.738;2023-05-22T06:35:43;95948.81;;;19.67;61.29
31357;BME280;60001;48.404;11.738;2023-05-22T06:37:15;95952.00;;;19.69;61.48
31357;BME280;60001;48.404;11.738;2023-05-22T06:38:47;95948.19;;;19.79;61.24
31357;BME280;60001;48.404;11.738;2023-05-22T06:40:22;95946.28;;;19.79;61.92
31357;BME280;60001;48.404;11.738;2023-05-22T06:41:54;95945.97;;;19.81;61.98
31357;BME280;60001;48.404;11.738;2023-05-22T06:43:25;95951.78;;;19.91;61.15
31357;BME280;60001;48.404;11.738;2023-05-22T06:44:57;95947.81;;;19.97;61.72
31357;BME280;60001;48.404;11.738;2023-05-22T06:46:29;95952.06;;;19.98;61.59
31357;BME280;60001;48.404;11.738;2023-05-22T06:48:01;95956.16;;;20.05;60.27
31357;BME280;60001;48.404;11.738;2023-05-22T06:49:33;95952.19;;;20.11;60.01
31357;BME280;60001;48.404;11.738;2023-05-22T06:51:05;95961.66;;;20.17;60.25
31357;BME280;60001;48.404;11.738;2023-05-22T06:52:37;95949.59;;;20.23;60.12
31357;BME280;60001;48.404;11.738;2023-05-22T06:54:09;95960.53;;;20.18;61.00
31357;BME280;60001;48.404;11.738;2023-05-22T06:55:43;95964.28;;;20.25;61.38
31357;BME280;60001;48.404;11.738;2023-05-22T06:57:15;95965.53;;;20.28;60.32
31357;BME280;60001;48.404;11.738;2023-05-22T06:58:47;95968.94;;;20.37;60.84
31357;BME280;60001;48.404;11.738;2023-05-22T07:00:19;95969.75;;;20.46;60.54
31357;BME280;60001;48.404;11.738;2023-05-22T07:01:50;95964.78;;;20.57;59.47
31357;BME280;60001;48.404;11.738;2023-05-22T07:03:22;95962.25;;;20.61;59.83
31357;BME280;60001;48.404;11.738;2023-05-22T07:04:54;95970.31;;;20.61;59.53
31357;BME280;60001;48.404;11.738;2023-05-22T07:06:26;95965.06;;;20.64;58.59
31357;BME280;60001;48.404;11.738;2023-05-22T07:07:58;95968.75;;;20.60;58.78
31357;BME280;60001;48.404;11.738;2023-05-22T07:09:30;95966.13;;;20.72;59.03
31357;BME280;60001;48.404;11.738;2023-05-22T07:11:05;95970.19;;;20.78;59.16
31357;BME280;60001;48.404;11.738;2023-05-22T07:12:38;95966.09;;;20.80;58.75
31357;BME280;60001;48.404;11.738;2023-05-22T07:14:09;95966.72;;;20.77;59.05
31357;BME280;60001;48.404;11.738;2023-05-22T07:15:42;95964.28;;;20.64;59.39
31357;BME280;60001;48.404;11.738;2023-05-22T07:17:14;95971.69;;;20.67;59.54
31357;BME280;60001;48.404;11.738;2023-05-22T07:18:45;95968.00;;;20.80;59.46
31357;BME280;60001;48.404;11.738;2023-05-22T07:20:17;95979.19;;;20.82;59.62
31357;BME280;60001;48.404;11.738;2023-05-22T07:21:49;95971.59;;;20.84;61.01
31357;BME280;60001;48.404;11.738;2023-05-22T07:23:21;95973.69;;;20.99;60.15
31357;BME280;60001;48.404;11.738;2023-05-22T07:24:52;95976.19;;;21.04;59.48
31357;BME280;60001;48.404;11.738;2023-05-22T07:26:26;95976.34;;;20.78;59.34
31357;BME280;60001;48.404;11.738;2023-05-22T07:27:59;95981.47;;;20.92;59.47
31357;BME280;60001;48.404;11.738;2023-05-22T07:29:31;95972.28;;;21.02;59.32
31357;BME280;60001;48.404;11.738;2023-05-22T07:31:03;95976.13;;;21.13;60.54
31357;BME280;60001;48.404;11.738;2023-05-22T07:32:34;95977.00;;;21.26;60.28
31357;BME280;60001;48.404;11.738;2023-05-22T07:34:07;95974.16;;;21.31;59.83
31357;BME280;60001;48.404;11.738;2023-05-22T07:35:39;95962.53;;;21.18;59.11
31357;BME280;60001;48.404;11.738;2023-05-22T07:37:12;95976.66;;;21.36;58.58
31357;BME280;60001;48.404;11.738;2023-05-22T07:38:44;95975.63;;;21.41;58.65
31357;BME280;60001;48.404;11.738;2023-05-22T07:40:16;95982.72;;;21.45;58.63
31357;BME280;60001;48.404;11.738;2023-05-22T07:41:49;95980.47;;;21.47;57.95
31357;BME280;60001;48.404;11.738;2023-05-22T07:43:21;95977.59;;;21.52;57.63
31357;BME280;60001;48.404;11.738;2023-05-22T07:44:53;95982.19;;;21.52;58.15
31357;BME280;60001;48.404;11.738;2023-05-22T07:46:25;95973.47;;;21.55;57.51
31357;BME280;60001;48.404;11.738;2023-05-22T07:47:57;95980.63;;;21.51;57.77
31357;BME280;60001;48.404;11.738;2023-05-22T07:49:31;95973.81;;;21.53;57.63
31357;BME280;60001;48.404;11.738;2023-05-22T07:51:03;95978.00;;;21.63;57.78
31357;BME280;60001;48.404;11.738;2023-05-22T07:52:35;95973.41;;;21.64;58.18
31357;BME280;60001;48.404;11.738;2023-05-22T07:54:07;95977.91;;;21.72;58.58
31357;BME280;60001;48.404;11.738;2023-05-22T07:55:39;95974.56;;;21.75;58.14
31357;BME280;60001;48.404;11.738;2023-05-22T07:57:14;95978.50;;;21.77;58.02
31357;BME280;60001;48.404;11.738;2023-05-22T07:58:47;95975.41;;;21.67;57.90
31357;BME280;60001;48.404;11.738;2023-05-22T08:00:19;95968.28;;;21.71;57.93
31357;BME280;60001;48.404;11.738;2023-05-22T08:01:52;95972.13;;;21.82;58.36
31357;BME280;60001;48.404;11.738;2023-05-22T08:03:23;95973.91;;;21.90;57.56
31357;BME280;60001;48.404;11.738;2023-05-22T08:04:55;95980.66;;;21.96;57.51
31357;BME280;60001;48.404;11.738;2023-05-22T08:06:27;95977.97;;;21.96;56.31
31357;BME280;60001;48.404;11.738;2023-05-22T08:07:59;95974.16;;;21.97;56.27
31357;BME280;60001;48.404;11.738;2023-05-22T08:09:32;95981.69;;;22.04;57.64